Time;durP1;ratioP1;P1;durP2;ratioP2;P2;SDS_P1;SDS_P2;PMS_P1;PMS_P2;Temp;Humidity;BMP_temperature;BMP_pressure;BME280_temperature;BME280_humidity;BME280_pressure;Samples;Min_cycle;Max_cycle;Signal;HPM_P1;HPM_P2
2021/12/05 00:22:26;;;;;;;1.85;1.75;;;;;;;;;;5013716;28;20109;-73
2021/12/05 00:24:55;;;;;;;1.95;1.85;;;;;;;;;;5012329;28;20046;-73
2021/12/05 00:27:26;;;;;;;2.20;2.00;;;;;;;;;;4997577;28;20398;-72
2021/12/05 00:32:28;;;;;;;2.30;2.10;;;;;;;;;;5016702;28;20488;-72
2021/12/05 00:59:07;;;;;;;1.98;1.88;;;;;;;;;;5011033;28;20048;-73
2021/12/05 01:16:41;;;;;;;2.55;2.35;;;;;;;;;;5022441;28;20014;-73
2021/12/05 01:19:07;;;;;;;3.22;3.03;;;;;;;;;;4996217;28;20026;-73
2021/12/05 01:21:34;;;;;;;3.08;2.88;;;;;;;;;;5014433;28;20101;-73
2021/12/05 01:24:07;;;;;;;2.30;2.08;;;;;;;;;;5011442;28;20410;-73
2021/12/05 01:26:49;;;;;;;2.67;2.47;;;;;;;;;;5012106;28;20167;-73
2021/12/05 01:37:32;;;;;;;2.17;1.98;;;;;;;;;;5013434;28;20391;-73
2021/12/05 01:50:54;;;;;;;2.10;1.90;;;;;;;;;;5004600;28;20080;-73
2021/12/05 01:53:44;;;;;;;1.52;1.42;;;;;;;;;;5008403;28;20387;-73
2021/12/05 01:58:58;;;;;;;1.92;1.83;;;;;;;;;;5011458;28;20021;-73
2021/12/05 02:41:28;;;;;;;1.90;1.67;;;;;;;;;;5005376;28;20030;-72
2021/12/05 02:44:03;;;;;;;2.03;1.83;;;;;;;;;;5012980;28;20075;-73
2021/12/05 02:46:28;;;;;;;3.47;2.00;;;;;;;;;;5007524;28;20402;-73
2021/12/05 02:48:59;;;;;;;2.30;2.10;;;;;;;;;;4986401;28;20029;-73
2021/12/05 02:51:26;;;;;;;2.45;2.25;;;;;;;;;;5006881;28;20239;-73
2021/12/05 02:54:02;;;;;;;1.88;1.77;;;;;;;;;;4975407;28;20625;-73
2021/12/05 02:56:30;;;;;;;1.98;1.80;;;;;;;;;;5007347;28;20156;-73
2021/12/05 02:59:00;;;;;;;1.77;1.45;;;;;;;;;;5012292;28;20049;-73
2021/12/05 03:01:32;;;;;;;1.77;1.67;;;;;;;;;;5018107;28;20441;-73
2021/12/05 03:03:57;;;;;;;1.38;1.10;;;;;;;;;;5022118;28;20029;-73
2021/12/05 03:06:26;;;;;;;1.85;1.60;;;;;;;;;;5031911;28;20022;-73
2021/12/05 03:08:56;;;;;;;1.90;1.60;;;;;;;;;;5017284;28;20032;-73
2021/12/05 03:11:22;;;;;;;2.22;1.75;;;;;;;;;;5011822;28;20032;-73
2021/12/05 03:13:47;;;;;;;1.45;1.35;;;;;;;;;;5008640;28;20029;-73
2021/12/05 03:16:13;;;;;;;3.40;1.52;;;;;;;;;;5010441;28;20026;-73
2021/12/05 03:18:40;;;;;;;2.03;1.50;;;;;;;;;;5012003;28;20057;-73
2021/12/05 03:21:07;;;;;;;3.17;1.40;;;;;;;;;;5009484;28;20022;-73
2021/12/05 03:23:33;;;;;;;1.88;1.77;;;;;;;;;;5004809;28;20029;-73
2021/12/05 03:25:58;;;;;;;2.45;1.15;;;;;;;;;;5003586;28;20037;-73
2021/12/05 03:28:25;;;;;;;1.65;1.48;;;;;;;;;;5003422;28;20707;-74
2021/12/05 03:30:50;;;;;;;2.60;1.63;;;;;;;;;;5012448;28;20022;-73
2021/12/05 03:33:15;;;;;;;1.75;1.30;;;;;;;;;;5007558;28;20030;-74
2021/12/05 03:35:40;;;;;;;3.42;1.55;;;;;;;;;;4998987;28;20050;-73
2021/12/05 03:38:06;;;;;;;2.25;1.08;;;;;;;;;;5002473;28;20025;-73
2021/12/05 03:40:33;;;;;;;2.35;1.58;;;;;;;;;;5011795;28;20029;-74
2021/12/05 03:42:59;;;;;;;3.15;1.33;;;;;;;;;;5002740;28;20035;-73
2021/12/05 03:45:31;;;;;;;2.42;1.20;;;;;;;;;;5006924;28;20022;-73
2021/12/05 03:47:57;;;;;;;3.03;1.25;;;;;;;;;;4999871;28;20148;-74
2021/12/05 03:50:23;;;;;;;4.57;1.15;;;;;;;;;;5011720;28;20108;-73
2021/12/05 03:52:48;;;;;;;1.92;1.00;;;;;;;;;;5009378;28;20482;-73
2021/12/05 03:55:14;;;;;;;3.13;1.23;;;;;;;;;;5009758;28;20030;-73
2021/12/05 03:57:39;;;;;;;3.30;1.33;;;;;;;;;;5002452;28;20014;-73
2021/12/05 04:00:07;;;;;;;3.38;1.50;;;;;;;;;;5005955;28;20478;-73
2021/12/05 04:02:33;;;;;;;2.30;1.30;;;;;;;;;;5011094;28;20057;-73
2021/12/05 04:04:59;;;;;;;2.00;1.35;;;;;;;;;;5011418;28;20045;-72
2021/12/05 04:07:24;;;;;;;3.65;1.33;;;;;;;;;;5006036;28;20030;-73
2021/12/05 04:09:50;;;;;;;4.38;1.52;;;;;;;;;;5009268;28;20053;-73
2021/12/05 04:12:16;;;;;;;4.65;1.50;;;;;;;;;;5010431;28;20498;-73
2021/12/05 04:14:43;;;;;;;2.08;1.30;;;;;;;;;;5001991;28;20113;-73
2021/12/05 04:17:10;;;;;;;1.77;1.27;;;;;;;;;;5004583;28;20025;-74
2021/12/05 04:19:36;;;;;;;2.85;1.25;;;;;;;;;;5010238;28;20030;-73
2021/12/05 04:22:02;;;;;;;2.65;1.38;;;;;;;;;;5011384;28;20080;-73
2021/12/05 04:24:27;;;;;;;2.13;1.40;;;;;;;;;;4992689;28;20115;-73
2021/12/05 04:26:52;;;;;;;2.95;1.35;;;;;;;;;;5000274;28;20019;-73
2021/12/05 04:29:18;;;;;;;2.78;1.33;;;;;;;;;;4981083;28;20030;-72
2021/12/05 04:31:44;;;;;;;5.00;1.20;;;;;;;;;;5009802;28;20028;-74
2021/12/05 04:34:11;;;;;;;2.85;1.30;;;;;;;;;;4993653;28;20034;-73
2021/12/05 04:36:36;;;;;;;2.00;1.15;;;;;;;;;;4995148;28;20034;-72
2021/12/05 04:39:03;;;;;;;2.30;0.80;;;;;;;;;;5012519;28;20025;-73
2021/12/05 04:41:28;;;;;;;4.03;1.48;;;;;;;;;;5013465;28;20463;-73
2021/12/05 04:43:54;;;;;;;2.85;1.30;;;;;;;;;;4997150;28;20033;-73
2021/12/05 04:46:22;;;;;;;2.72;1.15;;;;;;;;;;5006204;28;20045;-73
2021/12/05 04:48:50;;;;;;;2.40;1.00;;;;;;;;;;5002471;28;20387;-72
2021/12/05 04:51:15;;;;;;;3.60;1.25;;;;;;;;;;5012933;28;20248;-73
2021/12/05 04:53:41;;;;;;;3.38;1.33;;;;;;;;;;5016770;28;20125;-73
2021/12/05 04:56:06;;;;;;;2.88;1.27;;;;;;;;;;5009198;28;20076;-73
2021/12/05 04:58:31;;;;;;;3.75;1.27;;;;;;;;;;4995590;28;20022;-73
2021/12/05 05:00:57;;;;;;;3.60;1.40;;;;;;;;;;4995739;28;20152;-72
2021/12/05 05:03:23;;;;;;;3.05;1.30;;;;;;;;;;5014358;28;20020;-73
2021/12/05 05:05:58;;;;;;;3.75;1.58;;;;;;;;;;5012711;28;20738;-74
2021/12/05 05:08:26;;;;;;;;;;;;;;;;;;5013394;28;20072;-73
2021/12/05 05:10:51;;;;;;;4.85;1.48;;;;;;;;;;5007758;28;20437;-74
2021/12/05 05:13:16;;;;;;;3.17;1.40;;;;;;;;;;5012816;28;20026;-73
2021/12/05 05:15:42;;;;;;;3.03;1.40;;;;;;;;;;5007547;28;20052;-74
2021/12/05 05:18:09;;;;;;;2.33;1.23;;;;;;;;;;5000971;28;20046;-73
2021/12/05 05:20:54;;;;;;;3.47;1.23;;;;;;;;;;4998599;28;20367;-74
2021/12/05 05:23:39;;;;;;;4.90;1.43;;;;;;;;;;5012746;28;20117;-74
2021/12/05 05:50:17;;;;;;;3.35;1.90;;;;;;;;;;5012300;28;20096;-74
2021/12/05 05:52:43;;;;;;;3.57;2.23;;;;;;;;;;5007408;28;20023;-76
2021/12/05 05:55:09;;;;;;;3.20;1.90;;;;;;;;;;4993738;28;20057;-74
2021/12/05 05:57:43;;;;;;;5.05;2.65;;;;;;;;;;4984818;28;20029;-74
2021/12/05 06:00:27;;;;;;;6.35;2.80;;;;;;;;;;5011544;28;20021;-74
2021/12/05 06:05:36;;;;;;;5.20;2.25;;;;;;;;;;5012549;28;20032;-74
2021/12/05 06:08:01;;;;;;;4.33;2.73;;;;;;;;;;5015492;28;20026;-74
2021/12/05 06:10:28;;;;;;;5.83;2.40;;;;;;;;;;5002986;28;20038;-74
2021/12/05 06:12:54;;;;;;;2.07;1.43;;;;;;;;;;4999011;28;20044;-74
2021/12/05 06:15:20;;;;;;;5.57;2.67;;;;;;;;;;5010666;28;20120;-73
2021/12/05 06:17:45;;;;;;;6.33;2.83;;;;;;;;;;5028489;28;20057;-73
2021/12/05 06:20:11;;;;;;;3.93;2.10;;;;;;;;;;4994875;28;20057;-73
2021/12/05 06:22:36;;;;;;;4.05;2.38;;;;;;;;;;5012091;28;20022;-73
2021/12/05 06:25:03;;;;;;;4.72;2.78;;;;;;;;;;5010943;28;20042;-74
2021/12/05 06:27:28;;;;;;;3.60;2.30;;;;;;;;;;5012248;28;20502;-73
2021/12/05 06:30:04;;;;;;;4.03;2.13;;;;;;;;;;5004201;28;20025;-73
2021/12/05 06:38:31;;;;;;;4.23;2.47;;;;;;;;;;5012366;28;20044;-73
2021/12/05 06:46:15;;;;;;;2.93;1.80;;;;;;;;;;5007524;28;20030;-73
2021/12/05 06:48:42;;;;;;;3.73;1.80;;;;;;;;;;5012213;28;20065;-73
2021/12/05 06:51:08;;;;;;;5.90;1.77;;;;;;;;;;5011390;28;20026;-73
2021/12/05 06:53:33;;;;;;;2.23;1.50;;;;;;;;;;5007925;28;20029;-72
2021/12/05 06:55:58;;;;;;;4.83;2.03;;;;;;;;;;5009443;28;20022;-73
2021/12/05 06:58:23;;;;;;;2.33;1.73;;;;;;;;;;4997436;28;20514;-73
2021/12/05 07:00:49;;;;;;;4.97;2.00;;;;;;;;;;5001048;28;20050;-72
2021/12/05 07:03:14;;;;;;;3.80;1.73;;;;;;;;;;4994173;28;20124;-73
2021/12/05 07:05:56;;;;;;;2.80;1.70;;;;;;;;;;5007960;28;20088;-72
2021/12/05 07:08:26;;;;;;;4.00;1.43;;;;;;;;;;5009982;28;20394;-72
2021/12/05 07:11:00;;;;;;;2.10;1.60;;;;;;;;;;5008817;28;20044;-72
2021/12/05 07:24:05;;;;;;;4.00;1.87;;;;;;;;;;5002164;28;20099;-72
2021/12/05 07:42:45;;;;;;;3.50;1.30;;;;;;;;;;5010576;28;20041;-73
2021/12/05 07:45:14;;;;;;;4.03;1.50;;;;;;;;;;5011067;28;20013;-74
2021/12/05 07:47:44;;;;;;;5.17;1.73;;;;;;;;;;5011392;28;20014;-73
2021/12/05 07:50:11;;;;;;;4.30;1.65;;;;;;;;;;5009943;28;20474;-73
2021/12/05 07:52:43;;;;;;;2.95;1.50;;;;;;;;;;5011082;28;20029;-73
2021/12/05 07:55:29;;;;;;;3.42;1.88;;;;;;;;;;5009494;28;20037;-73
2021/12/05 08:00:34;;;;;;;2.83;1.63;;;;;;;;;;5009110;28;20482;-73
2021/12/05 08:16:45;;;;;;;3.20;1.15;;;;;;;;;;5015532;28;20037;-73
2021/12/05 08:19:10;;;;;;;3.13;1.33;;;;;;;;;;5013634;28;20025;-73
2021/12/05 08:21:35;;;;;;;3.28;1.40;;;;;;;;;;5012789;28;20367;-74
2021/12/05 08:24:01;;;;;;;4.32;1.55;;;;;;;;;;4993019;28;20648;-74
2021/12/05 08:26:32;;;;;;;2.05;1.00;;;;;;;;;;5001959;28;20034;-73
2021/12/05 08:29:11;;;;;;;4.25;1.08;;;;;;;;;;5011199;28;20029;-73
2021/12/05 08:37:09;;;;;;;3.25;0.80;;;;;;;;;;5014375;28;20045;-72
2021/12/05 09:21:25;;;;;;;4.13;0.88;;;;;;;;;;4919648;29;20444;-73
2021/12/05 09:23:55;;;;;;;5.68;0.70;;;;;;;;;;4930033;29;20103;-72
2021/12/05 10:17:39;;;;;;;3.38;1.00;;;;;;;;;;5004037;28;20084;-73
2021/12/05 10:20:26;;;;;;;4.30;1.40;;;;;;;;;;5006893;28;20041;-73
2021/12/05 10:33:45;;;;;;;2.42;0.80;;;;;;;;;;5007174;28;20908;-75
2021/12/05 10:36:23;;;;;;;7.05;1.08;;;;;;;;;;5010010;28;20018;-75
2021/12/05 10:38:54;;;;;;;2.70;0.93;;;;;;;;;;5009763;28;20072;-75
2021/12/05 10:41:46;;;;;;;3.13;0.70;;;;;;;;;;5009122;28;20018;-76
2021/12/05 10:44:10;;;;;;;4.53;0.93;;;;;;;;;;5008711;28;20044;-73
2021/12/05 10:46:36;;;;;;;2.20;1.10;;;;;;;;;;5009753;28;20048;-76
2021/12/05 10:49:06;;;;;;;3.55;0.95;;;;;;;;;;5011335;28;20029;-73
2021/12/05 10:51:37;;;;;;;2.63;1.20;;;;;;;;;;5009123;28;20026;-72
2021/12/05 10:54:07;;;;;;;3.67;1.17;;;;;;;;;;5011243;28;20167;-73
2021/12/05 10:56:35;;;;;;;4.95;1.40;;;;;;;;;;5010409;28;20347;-75
2021/12/05 10:59:03;;;;;;;3.40;1.10;;;;;;;;;;5005036;28;20025;-75
2021/12/05 11:01:34;;;;;;;2.63;1.00;;;;;;;;;;5010341;28;20022;-74
2021/12/05 11:04:05;;;;;;;2.13;0.80;;;;;;;;;;5007324;28;20252;-75
2021/12/05 11:06:31;;;;;;;2.03;0.60;;;;;;;;;;5009631;28;20034;-75
2021/12/05 11:08:58;;;;;;;3.85;1.08;;;;;;;;;;5009141;28;20395;-75
2021/12/05 11:11:23;;;;;;;3.08;0.77;;;;;;;;;;5009767;28;20030;-75
2021/12/05 11:13:50;;;;;;;3.53;0.90;;;;;;;;;;5006411;28;20030;-74
2021/12/05 11:16:32;;;;;;;4.68;0.90;;;;;;;;;;5011050;28;20554;-76
2021/12/05 11:18:58;;;;;;;1.92;1.25;;;;;;;;;;5010292;28;20432;-75
2021/12/05 11:21:35;;;;;;;3.35;0.98;;;;;;;;;;5011285;28;20022;-75
2021/12/05 11:24:16;;;;;;;4.88;1.42;;;;;;;;;;5002970;28;20041;-74
2021/12/05 11:26:42;;;;;;;3.78;1.52;;;;;;;;;;5009917;28;20427;-74
2021/12/05 11:29:09;;;;;;;4.05;1.50;;;;;;;;;;4987360;28;20032;-74
2021/12/05 11:31:36;;;;;;;3.20;1.20;;;;;;;;;;5005267;28;20077;-74
2021/12/05 11:34:01;;;;;;;4.63;0.98;;;;;;;;;;5004395;28;20026;-75
2021/12/05 11:36:28;;;;;;;4.30;1.02;;;;;;;;;;5006122;28;20030;-75
2021/12/05 11:38:53;;;;;;;4.05;1.05;;;;;;;;;;5008814;28;20022;-75
2021/12/05 11:41:23;;;;;;;5.68;1.10;;;;;;;;;;5010267;28;20026;-74
2021/12/05 11:43:56;;;;;;;4.40;0.85;;;;;;;;;;5005851;28;20161;-74
2021/12/05 11:46:26;;;;;;;2.30;0.55;;;;;;;;;;5013071;28;20026;-75
2021/12/05 11:49:03;;;;;;;2.85;0.70;;;;;;;;;;5013498;28;20022;-75
2021/12/05 11:51:44;;;;;;;2.67;0.60;;;;;;;;;;5014777;28;20038;-73
2021/12/05 11:54:14;;;;;;;3.30;0.98;;;;;;;;;;5011428;28;20028;-74
2021/12/05 11:56:49;;;;;;;3.65;0.75;;;;;;;;;;5007403;28;20037;-75
2021/12/05 11:59:20;;;;;;;3.67;0.93;;;;;;;;;;5005443;28;20022;-76
2021/12/05 12:01:47;;;;;;;2.63;0.60;;;;;;;;;;5012747;28;20374;-75
2021/12/05 12:04:14;;;;;;;3.25;0.63;;;;;;;;;;5012578;28;20037;-75
2021/12/05 12:06:40;;;;;;;3.15;0.98;;;;;;;;;;5011057;28;20021;-75
2021/12/05 12:09:05;;;;;;;4.13;0.90;;;;;;;;;;5006053;28;20500;-76
2021/12/05 12:11:30;;;;;;;4.20;0.60;;;;;;;;;;5008094;28;20029;-76
2021/12/05 12:13:55;;;;;;;3.20;0.68;;;;;;;;;;5007656;28;20030;-76
2021/12/05 12:16:21;;;;;;;3.58;0.60;;;;;;;;;;5010627;28;20041;-75
2021/12/05 12:18:49;;;;;;;4.38;0.50;;;;;;;;;;5014205;28;20018;-76
2021/12/05 12:21:20;;;;;;;3.67;0.50;;;;;;;;;;5012652;28;20015;-77
2021/12/05 12:23:51;;;;;;;3.42;0.60;;;;;;;;;;5012605;28;20134;-76
2021/12/05 12:26:16;;;;;;;3.22;0.68;;;;;;;;;;5012772;28;20022;-75
2021/12/05 12:28:42;;;;;;;4.28;0.85;;;;;;;;;;5009574;28;20356;-75
2021/12/05 12:31:11;;;;;;;5.93;0.80;;;;;;;;;;5013632;28;20113;-75
2021/12/05 12:33:48;;;;;;;2.92;0.50;;;;;;;;;;5012257;28;20056;-76
2021/12/05 12:36:13;;;;;;;2.65;0.70;;;;;;;;;;5004114;28;20048;-76
2021/12/05 12:38:40;;;;;;;5.80;1.08;;;;;;;;;;4999290;28;20026;-76
2021/12/05 12:41:17;;;;;;;2.33;0.70;;;;;;;;;;5013574;28;20021;-76
2021/12/05 12:43:52;;;;;;;5.80;1.02;;;;;;;;;;5006334;28;20036;-76
2021/12/05 12:46:23;;;;;;;2.90;0.90;;;;;;;;;;5010756;28;20029;-76
2021/12/05 12:48:51;;;;;;;3.72;0.57;;;;;;;;;;5012814;28;20379;-76
2021/12/05 12:51:25;;;;;;;4.53;0.75;;;;;;;;;;5011639;28;20072;-76
2021/12/05 12:53:54;;;;;;;4.85;0.57;;;;;;;;;;5011100;28;20532;-76
2021/12/05 12:56:22;;;;;;;3.80;0.80;;;;;;;;;;5011845;28;20037;-75
2021/12/05 12:58:54;;;;;;;2.42;0.57;;;;;;;;;;5006338;28;20018;-76
2021/12/05 13:12:30;;;;;;;3.40;0.70;;;;;;;;;;4991250;28;20057;-75
2021/12/05 13:15:05;;;;;;;3.78;0.75;;;;;;;;;;4990646;28;20506;-76
2021/12/05 13:17:37;;;;;;;4.88;0.90;;;;;;;;;;4990535;28;20022;-75
2021/12/05 13:20:03;;;;;;;4.13;1.02;;;;;;;;;;4990464;28;20434;-76
2021/12/05 13:22:28;;;;;;;4.38;1.00;;;;;;;;;;4990750;28;20545;-69
2021/12/05 13:25:05;;;;;;;4.28;0.98;;;;;;;;;;4989541;28;20050;-69
2021/12/05 13:27:32;;;;;;;2.65;0.60;;;;;;;;;;4989884;28;20038;-70
2021/12/05 13:29:57;;;;;;;3.85;0.80;;;;;;;;;;4983807;28;20033;-76
2021/12/05 13:32:25;;;;;;;1.83;0.75;;;;;;;;;;4990218;28;20023;-74
2021/12/05 13:34:52;;;;;;;5.15;1.20;;;;;;;;;;4987297;28;20509;-73
2021/12/05 13:37:22;;;;;;;5.18;0.75;;;;;;;;;;4989616;28;20030;-74
2021/12/05 13:39:47;;;;;;;4.40;1.05;;;;;;;;;;4998689;28;20037;-72
2021/12/05 13:42:16;;;;;;;3.58;1.05;;;;;;;;;;5010467;28;20018;-76
2021/12/05 13:45:06;;;;;;;3.60;1.00;;;;;;;;;;5012645;28;20088;-70
2021/12/05 13:47:50;;;;;;;4.78;1.10;;;;;;;;;;5008027;28;20034;-71
2021/12/05 13:50:18;;;;;;;2.75;1.20;;;;;;;;;;5009693;28;20030;-74
2021/12/05 13:52:45;;;;;;;3.97;0.93;;;;;;;;;;5010545;28;20018;-74
2021/12/05 13:55:29;;;;;;;3.15;0.90;;;;;;;;;;5010962;28;20490;-73
2021/12/05 13:58:13;;;;;;;7.43;1.33;;;;;;;;;;5004544;28;20386;-77
2021/12/05 14:00:40;;;;;;;3.03;1.25;;;;;;;;;;5025821;28;20033;-69
2021/12/05 14:03:05;;;;;;;3.42;1.10;;;;;;;;;;5009815;28;20036;-70
2021/12/05 14:05:30;;;;;;;4.18;1.33;;;;;;;;;;5011046;28;20034;-70
2021/12/05 14:07:56;;;;;;;3.58;1.30;;;;;;;;;;5011264;28;20113;-76
2021/12/05 14:10:21;;;;;;;5.30;1.30;;;;;;;;;;5013153;28;20030;-76
2021/12/05 14:12:47;;;;;;;5.50;1.20;;;;;;;;;;4993816;28;20486;-76
2021/12/05 14:15:13;;;;;;;4.65;1.10;;;;;;;;;;5010559;28;20018;-75
2021/12/05 14:17:44;;;;;;;4.32;1.20;;;;;;;;;;4994272;28;20026;-76
2021/12/05 14:20:11;;;;;;;3.22;1.40;;;;;;;;;;5011826;28;20046;-75
2021/12/05 14:22:37;;;;;;;4.45;1.48;;;;;;;;;;5005571;28;20033;-76
2021/12/05 14:25:07;;;;;;;4.97;1.67;;;;;;;;;;5004338;28;20503;-76
2021/12/05 14:27:37;;;;;;;4.82;1.10;;;;;;;;;;5010208;28;20026;-76
2021/12/05 14:30:14;;;;;;;5.93;1.50;;;;;;;;;;5124795;27;20953;-73
2021/12/05 14:32:41;;;;;;;4.60;1.02;;;;;;;;;;5126267;27;20035;-75
2021/12/05 14:35:11;;;;;;;4.65;1.48;;;;;;;;;;5122835;28;20055;-75
2021/12/05 14:37:37;;;;;;;4.32;1.38;;;;;;;;;;5127463;28;20110;-76
2021/12/05 14:40:08;;;;;;;7.40;1.95;;;;;;;;;;5127614;28;20064;-76
2021/12/05 14:42:35;;;;;;;5.70;2.13;;;;;;;;;;5127363;28;20090;-75
2021/12/05 14:45:03;;;;;;;4.10;1.88;;;;;;;;;;5126555;27;20072;-75
2021/12/05 14:47:33;;;;;;;6.72;1.85;;;;;;;;;;5126502;28;20038;-76
2021/12/05 14:50:00;;;;;;;7.47;2.53;;;;;;;;;;5127825;27;20023;-76
2021/12/05 14:52:26;;;;;;;5.50;1.90;;;;;;;;;;5127034;27;20517;-76
2021/12/05 14:54:52;;;;;;;5.07;2.45;;;;;;;;;;5126027;28;20067;-76
2021/12/05 14:57:19;;;;;;;6.30;2.53;;;;;;;;;;5128453;27;20114;-76
2021/12/05 14:59:45;;;;;;;8.07;3.05;;;;;;;;;;5122611;27;20031;-76
2021/12/05 15:02:12;;;;;;;5.90;2.22;;;;;;;;;;5124997;28;20487;-75
2021/12/05 15:04:42;;;;;;;7.32;2.25;;;;;;;;;;5126185;28;20183;-76
2021/12/05 15:07:07;;;;;;;7.07;2.97;;;;;;;;;;5122684;28;20027;-76
2021/12/05 15:09:36;;;;;;;8.13;2.97;;;;;;;;;;5122312;28;20088;-76
2021/12/05 15:12:04;;;;;;;7.30;2.63;;;;;;;;;;5124287;28;20025;-75
2021/12/05 15:14:30;;;;;;;7.85;2.72;;;;;;;;;;5126675;28;20019;-76
2021/12/05 15:17:00;;;;;;;8.13;3.45;;;;;;;;;;5123856;28;20018;-76
2021/12/05 15:19:25;;;;;;;7.85;3.08;;;;;;;;;;5127175;28;20023;-76
2021/12/05 15:21:51;;;;;;;8.07;3.40;;;;;;;;;;5124550;27;20025;-75
2021/12/05 15:24:17;;;;;;;10.13;3.28;;;;;;;;;;5126285;28;20029;-74
2021/12/05 15:26:43;;;;;;;8.25;3.28;;;;;;;;;;5123513;27;20016;-73
2021/12/05 15:29:08;;;;;;;8.85;4.30;;;;;;;;;;5120616;27;20100;-70
2021/12/05 15:31:34;;;;;;;11.13;4.28;;;;;;;;;;5120145;28;20472;-73
2021/12/05 15:34:00;;;;;;;11.45;4.78;;;;;;;;;;5121233;28;20051;-74
2021/12/05 15:36:34;;;;;;;11.80;5.03;;;;;;;;;;5122445;28;20058;-74
2021/12/05 15:39:09;;;;;;;6.60;3.30;;;;;;;;;;5118746;27;20028;-74
2021/12/05 15:41:34;;;;;;;;;;;;;;;;;;5107500;28;20265;-74
2021/12/05 15:43:59;;;;;;;7.43;3.20;;;;;;;;;;5107643;28;19908;-74
2021/12/05 15:46:27;;;;;;;8.52;3.38;;;;;;;;;;5110236;28;20028;-75
2021/12/05 15:48:54;;;;;;;7.93;3.38;;;;;;;;;;5108114;28;20034;-74
2021/12/05 15:51:21;;;;;;;6.43;3.22;;;;;;;;;;5107412;28;20660;-76
2021/12/05 15:53:47;;;;;;;7.40;3.97;;;;;;;;;;5108348;28;20020;-75
2021/12/05 15:56:14;;;;;;;8.20;3.80;;;;;;;;;;5109453;28;20034;-75
2021/12/05 15:58:40;;;;;;;7.85;2.80;;;;;;;;;;5104015;28;20107;-75
2021/12/05 16:01:06;;;;;;;7.05;3.45;;;;;;;;;;5106884;28;20042;-74
2021/12/05 16:03:42;;;;;;;7.28;3.05;;;;;;;;;;5109151;28;20401;-75
2021/12/05 16:06:08;;;;;;;7.65;2.53;;;;;;;;;;5109211;28;20015;-75
2021/12/05 16:08:33;;;;;;;6.60;2.92;;;;;;;;;;5108769;28;20023;-75
2021/12/05 16:10:59;;;;;;;6.10;2.90;;;;;;;;;;5106644;28;20431;-76
2021/12/05 16:13:38;;;;;;;6.75;2.78;;;;;;;;;;5107913;28;20019;-74
2021/12/05 16:16:32;;;;;;;6.80;2.70;;;;;;;;;;5099370;28;20361;-71
2021/12/05 16:18:59;;;;;;;7.63;3.45;;;;;;;;;;5089354;28;20032;-75
2021/12/05 16:21:36;;;;;;;6.72;3.10;;;;;;;;;;5101945;28;20032;-75
2021/12/05 16:24:08;;;;;;;6.07;2.80;;;;;;;;;;5105054;28;20027;-74
2021/12/05 16:26:34;;;;;;;6.40;3.15;;;;;;;;;;5101824;28;20502;-74
2021/12/05 16:29:12;;;;;;;7.97;2.90;;;;;;;;;;5098122;28;20056;-75
2021/12/05 16:31:39;;;;;;;9.32;4.50;;;;;;;;;;5102858;28;20114;-74
2021/12/05 16:34:04;;;;;;;9.70;4.00;;;;;;;;;;5109666;28;20162;-74
2021/12/05 16:36:39;;;;;;;10.27;4.30;;;;;;;;;;5102571;28;20308;-74
2021/12/05 16:39:04;;;;;;;;;;;;;;;;;;5104799;28;20077;-75
2021/12/05 16:41:30;;;;;;;9.07;4.68;;;;;;;;;;5102748;28;19916;-75
2021/12/05 16:43:57;;;;;;;9.80;4.88;;;;;;;;;;5101304;28;20058;-75
2021/12/05 16:46:41;;;;;;;9.10;4.75;;;;;;;;;;5101242;28;20079;-75
2021/12/05 16:49:09;;;;;;;11.68;5.18;;;;;;;;;;5102454;28;20429;-75
2021/12/05 16:51:36;;;;;;;7.70;4.97;;;;;;;;;;5107392;28;20059;-75
2021/12/05 16:54:12;;;;;;;10.07;5.15;;;;;;;;;;5106560;28;20031;-75
2021/12/05 16:56:41;;;;;;;11.95;5.88;;;;;;;;;;5105691;28;20016;-75
2021/12/05 16:59:09;;;;;;;11.90;7.20;;;;;;;;;;5102761;28;20015;-74
2021/12/05 17:01:35;;;;;;;12.38;7.00;;;;;;;;;;5104053;28;20502;-75
2021/12/05 17:04:00;;;;;;;10.93;5.35;;;;;;;;;;5106897;28;20028;-75
2021/12/05 17:06:25;;;;;;;10.57;4.97;;;;;;;;;;5107451;28;20491;-75
2021/12/05 17:08:50;;;;;;;8.98;3.67;;;;;;;;;;5086834;28;20111;-75
2021/12/05 17:11:17;;;;;;;8.23;4.10;;;;;;;;;;5109535;27;20016;-74
2021/12/05 17:13:42;;;;;;;10.10;3.25;;;;;;;;;;5103083;28;20476;-75
2021/12/05 17:16:10;;;;;;;8.27;3.42;;;;;;;;;;5111436;28;20023;-75
2021/12/05 17:18:37;;;;;;;7.68;3.20;;;;;;;;;;5107579;28;20076;-75
2021/12/05 17:21:08;;;;;;;7.03;3.50;;;;;;;;;;5111799;28;20053;-77
2021/12/05 17:23:39;;;;;;;8.57;3.50;;;;;;;;;;5110133;27;20471;-76
2021/12/05 17:26:17;;;;;;;7.93;4.18;;;;;;;;;;5103975;28;20030;-76
2021/12/05 17:28:50;;;;;;;6.85;4.43;;;;;;;;;;5098402;28;20136;-77
2021/12/05 17:31:17;;;;;;;10.32;4.60;;;;;;;;;;5106370;28;20024;-77
2021/12/05 17:33:44;;;;;;;9.50;5.15;;;;;;;;;;5103062;28;20028;-76
2021/12/05 17:36:12;;;;;;;11.30;5.40;;;;;;;;;;5111127;28;20031;-73
2021/12/05 17:38:38;;;;;;;8.18;5.40;;;;;;;;;;5106375;28;20157;-75
2021/12/05 17:41:03;;;;;;;13.85;6.82;;;;;;;;;;5107752;28;20144;-75
2021/12/05 17:43:29;;;;;;;8.90;5.40;;;;;;;;;;5110349;28;20032;-74
2021/12/05 17:45:54;;;;;;;12.57;6.60;;;;;;;;;;5107611;28;20031;-74
2021/12/05 17:48:20;;;;;;;11.43;6.22;;;;;;;;;;5110315;28;20031;-75
2021/12/05 17:50:45;;;;;;;11.40;5.97;;;;;;;;;;5107643;28;20019;-75
2021/12/05 17:53:10;;;;;;;12.82;6.60;;;;;;;;;;5108773;28;20383;-73
2021/12/05 17:55:43;;;;;;;9.23;6.18;;;;;;;;;;5110270;28;20023;-75
2021/12/05 17:58:21;;;;;;;12.30;6.60;;;;;;;;;;5103007;28;20102;-74
2021/12/05 18:00:58;;;;;;;18.90;13.85;;;;;;;;;;5124227;27;20076;-75
2021/12/05 18:03:24;;;;;;;15.25;8.75;;;;;;;;;;5140641;27;20479;-75
2021/12/05 18:05:49;;;;;;;11.32;6.68;;;;;;;;;;5112145;28;20303;-75
2021/12/05 18:08:20;;;;;;;11.38;6.13;;;;;;;;;;5113422;27;20077;-75
2021/12/05 18:10:49;;;;;;;10.35;5.60;;;;;;;;;;5109965;28;20024;-75
2021/12/05 18:13:15;;;;;;;11.15;6.28;;;;;;;;;;5109131;28;20047;-75
2021/12/05 18:15:46;;;;;;;11.95;5.72;;;;;;;;;;5105632;28;20103;-73
2021/12/05 18:18:13;;;;;;;9.10;5.95;;;;;;;;;;5103665;28;20480;-75
2021/12/05 18:20:39;;;;;;;10.85;5.40;;;;;;;;;;5103724;28;20114;-74
2021/12/05 18:23:06;;;;;;;12.85;5.68;;;;;;;;;;5110128;28;20110;-75
2021/12/05 18:25:32;;;;;;;9.55;5.43;;;;;;;;;;5108247;28;20031;-75
2021/12/05 18:27:57;;;;;;;11.15;6.13;;;;;;;;;;5109040;28;20027;-74
2021/12/05 18:30:24;;;;;;;8.25;5.25;;;;;;;;;;5105182;28;20039;-74
2021/12/05 18:32:50;;;;;;;12.95;5.15;;;;;;;;;;5109864;28;20059;-75
2021/12/05 18:35:16;;;;;;;8.30;5.43;;;;;;;;;;5104108;28;20119;-75
2021/12/05 18:37:42;;;;;;;9.77;5.18;;;;;;;;;;5108727;28;20160;-74
2021/12/05 18:40:08;;;;;;;11.25;5.10;;;;;;;;;;5108621;28;20102;-76
2021/12/05 18:42:33;;;;;;;12.25;5.60;;;;;;;;;;5105395;28;20560;-72
2021/12/05 18:45:01;;;;;;;12.07;5.70;;;;;;;;;;5094703;28;20036;-75
2021/12/05 18:47:27;;;;;;;11.18;5.47;;;;;;;;;;5092969;28;20039;-74
2021/12/05 18:49:53;;;;;;;10.70;5.03;;;;;;;;;;5108787;28;20028;-75
2021/12/05 18:52:18;;;;;;;9.25;6.18;;;;;;;;;;5108137;28;20051;-74
2021/12/05 18:54:45;;;;;;;13.38;6.13;;;;;;;;;;5109548;28;20480;-73
2021/12/05 18:57:12;;;;;;;10.15;5.15;;;;;;;;;;5109788;28;20027;-74
2021/12/05 18:59:40;;;;;;;12.85;5.32;;;;;;;;;;5084008;28;20049;-74
2021/12/05 19:05:07;;;;;;;10.67;5.40;;;;;;;;;;5060730;28;20032;-73
2021/12/05 19:07:45;;;;;;;10.73;4.77;;;;;;;;;;5060115;28;20397;-74
2021/12/05 19:12:54;;;;;;;12.60;5.13;;;;;;;;;;5061591;28;20066;-74
2021/12/05 19:15:20;;;;;;;7.75;4.22;;;;;;;;;;5046924;28;20498;-74
2021/12/05 19:17:45;;;;;;;10.57;4.88;;;;;;;;;;5063011;28;20053;-74
2021/12/05 19:20:13;;;;;;;5.78;3.67;;;;;;;;;;5064066;28;20036;-74
2021/12/05 19:22:39;;;;;;;5.65;4.00;;;;;;;;;;5067417;28;20507;-74
2021/12/05 19:25:08;;;;;;;7.80;4.40;;;;;;;;;;5066639;28;20028;-74
2021/12/05 19:27:33;;;;;;;8.57;4.18;;;;;;;;;;5068202;28;20128;-74
2021/12/05 19:29:59;;;;;;;7.93;4.35;;;;;;;;;;5043785;28;20540;-74
2021/12/05 19:32:26;;;;;;;8.15;4.00;;;;;;;;;;5068125;28;20070;-74
2021/12/05 19:34:51;;;;;;;6.83;4.17;;;;;;;;;;5066872;28;20024;-74
2021/12/05 19:37:17;;;;;;;9.13;4.80;;;;;;;;;;5071596;28;20066;-74
2021/12/05 19:39:43;;;;;;;6.32;3.67;;;;;;;;;;5073469;28;20028;-74
2021/12/05 19:42:09;;;;;;;9.05;4.20;;;;;;;;;;5107438;27;20028;-74
2021/12/05 19:44:35;;;;;;;7.93;4.32;;;;;;;;;;5105296;28;20035;-74
2021/12/05 19:47:00;;;;;;;9.32;4.28;;;;;;;;;;5105776;28;20035;-74
2021/12/05 19:49:27;;;;;;;8.82;4.18;;;;;;;;;;5085536;28;20483;-74
2021/12/05 19:51:53;;;;;;;8.77;3.60;;;;;;;;;;5105277;28;20027;-74
2021/12/05 21:00:49;;;;;;;6.87;4.07;;;;;;;;;;5099263;27;20599;-74
2021/12/05 21:03:15;;;;;;;6.37;4.23;;;;;;;;;;5108499;27;20019;-73
2021/12/05 21:05:41;;;;;;;9.50;4.07;;;;;;;;;;5117267;27;20031;-74
2021/12/05 21:08:08;;;;;;;9.35;4.13;;;;;;;;;;5133075;27;20030;-74
2021/12/05 21:10:35;;;;;;;6.65;4.45;;;;;;;;;;5133082;27;20031;-74
2021/12/05 21:13:01;;;;;;;10.13;3.85;;;;;;;;;;5112311;27;20479;-73
2021/12/05 21:15:26;;;;;;;10.32;4.57;;;;;;;;;;5095507;27;20056;-73
2021/12/05 21:17:52;;;;;;;8.05;4.50;;;;;;;;;;5129200;27;20019;-73
2021/12/05 21:20:18;;;;;;;6.88;4.13;;;;;;;;;;5132980;27;20031;-73
2021/12/05 21:22:43;;;;;;;9.77;4.80;;;;;;;;;;5110386;27;20034;-74
2021/12/05 21:25:09;;;;;;;7.20;4.70;;;;;;;;;;5111843;27;20037;-74
2021/12/05 21:27:35;;;;;;;8.65;5.07;;;;;;;;;;5132311;27;20039;-73
2021/12/05 21:30:00;;;;;;;9.30;5.47;;;;;;;;;;5114412;27;20377;-74